createdAt,value
2017-12-25T00:00:39.601Z,-1.00
2017-12-25T00:03:09.146Z,-1.00
2017-12-25T00:05:37.875Z,-1.00
2017-12-25T00:08:06.609Z,-0.80
2017-12-25T00:10:35.086Z,-0.40
2017-12-25T00:13:03.796Z,0.00
2017-12-25T00:15:32.540Z,0.30
2017-12-25T00:18:02.062Z,0.70
2017-12-25T00:20:30.831Z,0.70
2017-12-25T00:23:00.327Z,0.40
2017-12-25T00:25:29.262Z,0.40
2017-12-25T00:27:58.208Z,0.30
2017-12-25T00:30:27.734Z,0.60
2017-12-25T00:32:57.248Z,1.80
2017-12-25T00:35:26.745Z,2.70
2017-12-25T00:37:55.468Z,2.70
2017-12-25T00:40:24.144Z,3.50
2017-12-25T00:42:52.881Z,3.70
2017-12-25T00:45:21.620Z,3.70
2017-12-25T00:47:50.324Z,3.80
2017-12-25T00:50:19.075Z,3.80
2017-12-25T00:52:48.584Z,3.90
2017-12-25T00:55:17.304Z,3.80
2017-12-25T00:57:46.058Z,4.00
2017-12-25T01:00:15.566Z,4.80
2017-12-25T01:02:44.279Z,4.70
2017-12-25T01:05:13.752Z,5.30
2017-12-25T01:07:43.450Z,5.10
2017-12-25T01:10:12.922Z,4.90
2017-12-25T01:12:41.632Z,4.90
2017-12-25T01:15:10.579Z,4.60
2017-12-25T01:17:39.296Z,4.90
2017-12-25T01:20:08.032Z,5.00
2017-12-25T01:22:36.780Z,4.80
2017-12-25T01:25:05.501Z,4.70
2017-12-25T01:27:34.982Z,4.90
2017-12-25T01:30:03.680Z,4.90
2017-12-25T01:32:32.579Z,5.00
2017-12-25T01:35:02.022Z,4.40
2017-12-25T01:37:30.775Z,4.40
2017-12-25T01:39:59.500Z,4.00
2017-12-25T01:42:28.210Z,3.30
2017-12-25T01:44:57.155Z,2.70
2017-12-25T01:47:25.900Z,2.00
2017-12-25T01:49:54.596Z,1.60
2017-12-25T01:52:23.218Z,1.50
2017-12-25T01:54:51.280Z,1.50
2017-12-25T01:57:22.971Z,1.70
2017-12-25T02:03:01.168Z,1.70
2017-12-25T02:05:31.583Z,2.80
2017-12-25T02:08:16.329Z,2.70
2017-12-25T02:10:45.046Z,2.80
2017-12-25T02:13:14.552Z,3.40
2017-12-25T02:15:43.990Z,3.40
2017-12-25T02:18:12.717Z,3.40
2017-12-25T02:20:41.396Z,3.00
2017-12-25T02:23:10.142Z,2.50
2017-12-25T02:25:38.846Z,2.20
2017-12-25T02:28:07.629Z,1.90
2017-12-25T02:30:36.374Z,1.50
2017-12-25T02:33:05.818Z,0.80
2017-12-25T02:35:34.518Z,0.80
2017-12-25T02:38:03.215Z,0.50
2017-12-25T02:40:31.951Z,0.40
2017-12-25T02:43:01.435Z,0.10
2017-12-25T02:45:30.153Z,0.00
2017-12-25T02:47:59.631Z,-0.30
2017-12-25T02:50:29.181Z,-0.60
2017-12-25T02:52:57.896Z,-0.60
2017-12-25T02:55:26.634Z,-0.70
2017-12-25T02:57:55.374Z,-0.80
2017-12-25T03:00:24.107Z,-0.80
2017-12-25T03:02:53.660Z,-0.90
2017-12-25T03:05:22.385Z,-0.90
2017-12-25T03:07:51.150Z,-0.90
2017-12-25T03:10:19.961Z,-1.00
2017-12-25T03:12:48.754Z,-1.00
2017-12-25T03:15:17.425Z,-0.90
2017-12-25T03:17:46.213Z,-0.80
2017-12-25T03:20:14.966Z,-0.60
2017-12-25T03:22:43.682Z,-0.30
2017-12-25T03:25:12.411Z,-0.20
2017-12-25T03:27:42.269Z,0.00
2017-12-25T03:30:11.028Z,-0.10
2017-12-25T03:32:40.502Z,-0.10
2017-12-25T03:35:09.209Z,-0.10
2017-12-25T03:37:38.755Z,-0.50
2017-12-25T03:40:07.507Z,-0.50
2017-12-25T03:42:36.991Z,-0.80
2017-12-25T03:45:05.700Z,-0.80
2017-12-25T03:47:35.171Z,-1.00
2017-12-25T03:50:03.861Z,-1.10
2017-12-25T03:52:32.597Z,-1.20
2017-12-25T03:55:01.482Z,-1.30
2017-12-25T03:57:30.218Z,-1.50
2017-12-25T03:59:58.935Z,-1.60
2017-12-25T04:02:28.423Z,-1.70
2017-12-25T04:04:57.123Z,-1.70
2017-12-25T04:07:25.845Z,-1.70
2017-12-25T04:09:54.589Z,-1.70
2017-12-25T04:12:23.335Z,-1.70
2017-12-25T04:14:52.106Z,-1.70
2017-12-25T04:17:20.985Z,-1.80
2017-12-25T04:19:50.511Z,-2.00
2017-12-25T04:22:19.267Z,-2.10
2017-12-25T04:24:48.034Z,-2.00
2017-12-25T04:27:16.826Z,-2.00
2017-12-25T04:29:45.758Z,-2.00
2017-12-25T04:32:14.513Z,-1.90
2017-12-25T04:34:43.238Z,-2.00
2017-12-25T04:37:11.932Z,-2.00
2017-12-25T04:39:40.702Z,-2.00
2017-12-25T04:42:10.413Z,-2.20
2017-12-25T04:44:39.943Z,-2.20
2017-12-25T04:47:08.690Z,-2.20
2017-12-25T04:49:37.439Z,-2.10
2017-12-25T04:52:06.164Z,-2.10
2017-12-25T04:54:34.888Z,-2.10
2017-12-25T04:57:03.612Z,-2.00
2017-12-25T04:59:32.396Z,-2.00
2017-12-25T05:02:01.142Z,-2.00
2017-12-25T05:04:30.645Z,-2.20
2017-12-25T05:06:59.430Z,-2.20
2017-12-25T05:09:28.911Z,-2.10
2017-12-25T05:11:57.626Z,-2.20
2017-12-25T05:14:27.139Z,-2.10
2017-12-25T05:16:56.623Z,-2.20
2017-12-25T05:19:25.407Z,-2.30
2017-12-25T05:21:54.112Z,-2.30
2017-12-25T05:24:23.619Z,-2.20
2017-12-25T05:26:53.149Z,-2.10
2017-12-25T05:29:21.895Z,-2.10
2017-12-25T05:31:50.805Z,-1.90
2017-12-25T05:34:19.580Z,-1.90
2017-12-25T05:36:48.150Z,-1.90
2017-12-25T05:39:16.869Z,-1.90
2017-12-25T05:41:45.617Z,-1.90
2017-12-25T05:44:14.357Z,-1.90
2017-12-25T05:46:43.096Z,-1.90
2017-12-25T05:49:11.843Z,-2.00
2017-12-25T05:51:40.585Z,-2.10
2017-12-25T05:54:09.371Z,-2.20
2017-12-25T05:56:38.181Z,-2.20
2017-12-25T05:59:06.911Z,-2.20
2017-12-25T06:01:35.650Z,-2.20
2017-12-25T06:04:04.359Z,-2.20
2017-12-25T06:06:33.830Z,-2.30
2017-12-25T06:09:02.590Z,-2.30
2017-12-25T06:11:31.251Z,-2.30
2017-12-25T06:13:59.994Z,-2.30
2017-12-25T06:16:28.774Z,-2.40
2017-12-25T06:18:57.498Z,-2.40
2017-12-25T06:21:26.181Z,-2.50
2017-12-25T06:23:55.689Z,-2.40
2017-12-25T06:26:24.375Z,-2.50
2017-12-25T06:28:53.083Z,-2.50
2017-12-25T06:31:21.817Z,-2.50
2017-12-25T06:33:50.519Z,-2.50
2017-12-25T06:36:19.247Z,-2.50
2017-12-25T06:38:47.990Z,-2.50
2017-12-25T06:41:16.809Z,-2.50
2017-12-25T06:43:46.330Z,-2.60
2017-12-25T06:46:15.003Z,-2.60
2017-12-25T06:48:44.528Z,-2.60
2017-12-25T06:51:13.222Z,-2.60
2017-12-25T06:53:41.894Z,-2.60
2017-12-25T06:56:11.321Z,-2.70
2017-12-25T06:58:40.038Z,-2.70
2017-12-25T07:01:08.719Z,-2.60
2017-12-25T07:03:37.410Z,-2.60
2017-12-25T07:06:06.173Z,-2.60
2017-12-25T07:08:35.365Z,-2.60
2017-12-25T07:11:04.031Z,-2.60
2017-12-25T07:13:32.755Z,-2.60
2017-12-25T07:16:01.474Z,-2.50
2017-12-25T07:18:29.897Z,-2.50
2017-12-25T07:20:58.722Z,-2.40
2017-12-25T07:23:27.417Z,-2.40
2017-12-25T07:25:56.114Z,-2.40
2017-12-25T07:28:24.882Z,-2.30
2017-12-25T07:30:53.622Z,-2.30
2017-12-25T07:33:23.106Z,-2.30
2017-12-25T07:35:51.826Z,-2.30
2017-12-25T07:38:20.581Z,-2.20
2017-12-25T07:40:49.261Z,-2.10
2017-12-25T07:43:17.963Z,-2.10
2017-12-25T07:45:46.665Z,-1.90
2017-12-25T07:48:15.363Z,-1.90
2017-12-25T07:50:45.022Z,-1.80
2017-12-25T07:53:13.690Z,-1.80
2017-12-25T07:55:42.406Z,-1.80
2017-12-25T07:58:11.101Z,-1.70
2017-12-25T08:00:39.790Z,-1.60
2017-12-25T08:03:08.753Z,-1.60
2017-12-25T08:05:37.401Z,-1.50
2017-12-25T08:08:06.967Z,-1.40
2017-12-25T08:10:35.693Z,-1.40
2017-12-25T08:13:05.199Z,-1.10
2017-12-25T08:15:34.643Z,-0.80
2017-12-25T08:18:03.326Z,-0.80
2017-12-25T08:20:32.009Z,-0.50
2017-12-25T08:23:00.731Z,-0.50
2017-12-25T08:25:29.440Z,-0.20
2017-12-25T08:27:58.949Z,1.30
2017-12-25T08:30:27.628Z,1.30
2017-12-25T08:32:57.102Z,7.10
2017-12-25T08:35:25.811Z,7.10
2017-12-25T08:37:54.233Z,9.40
2017-12-25T08:40:23.503Z,12.40
2017-12-25T08:42:51.996Z,12.30
2017-12-25T08:45:20.498Z,13.40
2017-12-25T08:47:49.059Z,15.00
2017-12-25T08:50:17.569Z,16.00
2017-12-25T08:52:46.034Z,16.50
2017-12-25T08:55:14.534Z,16.60
2017-12-25T08:57:43.066Z,17.20
2017-12-25T09:00:12.244Z,17.90
2017-12-25T09:02:41.526Z,18.60
2017-12-25T09:05:10.027Z,18.60
2017-12-25T09:07:40.039Z,18.50
2017-12-25T09:10:08.559Z,18.50
2017-12-25T09:12:37.144Z,19.30
2017-12-25T09:15:05.626Z,19.60
2017-12-25T09:17:42.324Z,19.60
2017-12-25T09:39:11.243Z,22.50
2017-12-25T09:41:40.892Z,22.50
2017-12-25T09:44:09.445Z,22.70
2017-12-25T09:46:37.938Z,22.90
2017-12-25T09:49:06.495Z,23.20
2017-12-25T09:51:35.831Z,23.20
2017-12-25T09:54:04.294Z,23.00
2017-12-25T09:56:32.887Z,23.50
2017-12-25T09:59:01.441Z,23.00
2017-12-25T10:01:29.947Z,23.60
2017-12-25T10:03:58.439Z,23.80
2017-12-25T10:06:26.895Z,23.90
2017-12-25T10:08:55.402Z,23.50
2017-12-25T10:11:23.930Z,23.70
2017-12-25T10:13:53.178Z,23.70
2017-12-25T10:16:21.621Z,23.70
2017-12-25T10:18:50.085Z,24.40
2017-12-25T10:21:18.531Z,24.10
2017-12-25T10:23:47.051Z,24.10
2017-12-25T10:26:15.494Z,25.00
2017-12-25T10:28:43.925Z,24.50
2017-12-25T10:31:13.163Z,23.00
2017-12-25T10:33:41.582Z,22.90
2017-12-25T10:36:09.986Z,22.60
2017-12-25T10:38:39.230Z,21.00
2017-12-25T10:41:08.477Z,19.90
2017-12-25T10:43:36.942Z,19.90
2017-12-25T10:46:05.422Z,18.90
2017-12-25T10:48:33.890Z,18.10
2017-12-25T10:51:02.301Z,17.70
2017-12-25T10:53:30.731Z,16.90
2017-12-25T10:55:59.181Z,15.70
2017-12-25T10:58:29.600Z,15.70
2017-12-25T11:00:58.835Z,15.00
2017-12-25T11:03:27.326Z,15.00
2017-12-25T11:05:55.751Z,14.50
2017-12-25T11:08:24.189Z,13.00
2017-12-25T11:10:52.669Z,12.60
2017-12-25T11:13:21.071Z,12.60
2017-12-25T11:15:49.587Z,12.80
2017-12-25T11:18:18.805Z,13.60
2017-12-25T11:20:48.173Z,13.60
2017-12-25T11:23:16.615Z,13.60
2017-12-25T11:25:45.038Z,13.90
2017-12-25T11:28:13.494Z,14.10
2017-12-25T11:30:41.944Z,14.20
2017-12-25T11:33:10.363Z,14.30
2017-12-25T11:35:38.790Z,13.70
2017-12-25T11:38:07.253Z,13.00
2017-12-25T11:40:35.696Z,12.60
2017-12-25T11:43:04.158Z,12.30
2017-12-25T11:45:32.619Z,12.20
2017-12-25T11:48:01.319Z,12.30
2017-12-25T11:50:29.755Z,12.50
2017-12-25T11:52:58.181Z,12.70
2017-12-25T11:55:26.657Z,12.90
2017-12-25T11:57:55.098Z,12.80
2017-12-25T12:00:23.525Z,12.00
2017-12-25T12:02:52.021Z,11.50
2017-12-25T12:05:20.466Z,11.10
2017-12-25T12:07:49.866Z,11.10
2017-12-25T12:10:19.257Z,11.50
2017-12-25T12:12:47.725Z,11.40
2017-12-25T12:15:16.149Z,11.50
2017-12-25T12:17:44.553Z,11.50
2017-12-25T12:20:13.769Z,11.60
2017-12-25T12:22:42.203Z,11.60
2017-12-25T12:25:11.382Z,11.50
2017-12-25T12:27:39.799Z,11.40
2017-12-25T12:30:08.258Z,11.60
2017-12-25T12:32:37.441Z,11.80
2017-12-25T12:35:05.860Z,11.80
2017-12-25T12:37:34.322Z,12.60
2017-12-25T12:40:02.810Z,12.40
2017-12-25T12:42:31.221Z,13.00
2017-12-25T12:44:59.662Z,13.60
2017-12-25T12:47:28.922Z,15.30
2017-12-25T12:49:57.366Z,15.20
2017-12-25T12:52:25.805Z,16.70
2017-12-25T12:54:54.306Z,18.50
2017-12-25T12:57:23.522Z,20.10
2017-12-25T12:59:51.933Z,20.00
2017-12-25T13:02:20.412Z,20.30
2017-12-25T13:04:48.811Z,20.70
2017-12-25T13:07:17.236Z,20.40
2017-12-25T13:09:46.662Z,19.10
2017-12-25T13:12:15.067Z,19.10
2017-12-25T13:14:43.493Z,18.60
2017-12-25T13:17:12.945Z,17.80
2017-12-25T13:19:41.361Z,17.70
2017-12-25T13:22:09.819Z,17.10
2017-12-25T13:24:38.423Z,17.00
2017-12-25T13:27:07.684Z,15.60
2017-12-25T13:29:36.174Z,15.60
2017-12-25T13:32:05.037Z,14.70
2017-12-25T13:34:33.684Z,14.50
2017-12-25T13:37:02.931Z,15.20
2017-12-25T13:39:31.437Z,15.20
2017-12-25T13:41:59.850Z,15.10
2017-12-25T13:44:28.298Z,13.90
2017-12-25T13:46:57.639Z,13.30
2017-12-25T13:49:26.155Z,13.30
2017-12-25T13:51:55.294Z,12.60
2017-12-25T13:54:23.689Z,12.60
2017-12-25T13:56:52.926Z,11.00
2017-12-25T13:59:21.399Z,11.00
2017-12-25T14:01:50.695Z,9.80
2017-12-25T14:04:19.220Z,9.70
2017-12-25T14:06:47.622Z,9.40
2017-12-25T14:09:16.096Z,8.70
2017-12-25T14:11:44.478Z,8.10
2017-12-25T14:14:12.901Z,7.50
2017-12-25T14:16:41.333Z,7.00
2017-12-25T14:19:10.798Z,6.20
2017-12-25T14:21:39.699Z,6.20
2017-12-25T14:24:08.381Z,5.90
2017-12-25T14:26:37.174Z,5.50
2017-12-25T14:29:05.863Z,5.30
2017-12-25T14:31:34.550Z,5.00
2017-12-25T14:34:03.249Z,4.80
2017-12-25T14:36:32.667Z,4.50
2017-12-25T14:39:01.353Z,4.50
2017-12-25T14:41:30.780Z,4.10
2017-12-25T14:43:59.454Z,4.00
2017-12-25T14:46:28.130Z,4.00
2017-12-25T14:48:56.817Z,3.80
2017-12-25T14:51:26.255Z,3.70
2017-12-25T14:53:54.957Z,3.60
2017-12-25T14:56:23.650Z,3.50
2017-12-25T14:58:52.313Z,3.30
2017-12-25T15:01:21.045Z,3.20
2017-12-25T15:03:49.709Z,3.10
2017-12-25T15:06:18.373Z,2.90
2017-12-25T15:08:47.044Z,2.80
2017-12-25T15:11:15.733Z,2.70
2017-12-25T15:13:44.478Z,2.70
2017-12-25T15:16:13.173Z,2.50
2017-12-25T15:18:41.883Z,2.40
2017-12-25T15:21:11.362Z,2.10
2017-12-25T15:23:40.076Z,2.10
2017-12-25T15:26:09.504Z,1.80
2017-12-25T15:28:38.164Z,1.80
2017-12-25T15:31:07.633Z,1.50
2017-12-25T15:33:36.309Z,1.50
2017-12-25T15:36:06.323Z,1.30
2017-12-25T15:38:35.029Z,1.30
2017-12-25T15:41:03.692Z,1.30
2017-12-25T15:43:32.414Z,1.20
2017-12-25T15:46:01.089Z,1.10
2017-12-25T15:48:29.814Z,1.00
2017-12-25T15:50:59.258Z,0.90
2017-12-25T15:53:28.106Z,0.80
2017-12-25T15:55:57.577Z,0.70
2017-12-25T15:58:26.233Z,0.70
2017-12-25T16:00:54.884Z,0.70
2017-12-25T16:03:24.316Z,0.70
2017-12-25T16:05:52.975Z,0.70
2017-12-25T16:08:22.401Z,0.60
2017-12-25T16:10:51.153Z,0.50
2017-12-25T16:13:19.817Z,0.50
2017-12-25T16:15:48.517Z,0.40
2017-12-25T16:18:17.202Z,0.30
2017-12-25T16:20:45.908Z,0.20
2017-12-25T16:23:14.565Z,0.30
2017-12-25T16:25:43.346Z,0.30
2017-12-25T16:28:13.121Z,0.10
2017-12-25T16:30:41.965Z,0.00
2017-12-25T16:33:10.660Z,0.00
2017-12-25T16:35:39.332Z,-0.10
2017-12-25T16:38:08.028Z,-0.20
2017-12-25T16:40:36.757Z,-0.20
2017-12-25T16:43:06.204Z,-0.30
2017-12-25T16:45:34.909Z,-0.30
2017-12-25T16:48:03.565Z,-0.40
2017-12-25T16:50:32.221Z,-0.40
2017-12-25T16:53:01.671Z,-0.40
2017-12-25T16:55:30.325Z,-0.40
2017-12-25T16:57:59.094Z,-0.50
2017-12-25T17:00:28.550Z,-0.60
2017-12-25T17:02:57.296Z,-0.60
2017-12-25T17:05:26.117Z,-0.60
2017-12-25T17:07:54.914Z,-0.70
2017-12-25T17:10:23.564Z,-0.70
2017-12-25T17:12:52.259Z,-0.80
2017-12-25T17:15:20.950Z,-0.90
2017-12-25T17:17:49.616Z,-0.90
2017-12-25T17:20:18.339Z,-0.90
2017-12-25T17:22:47.035Z,-0.90
2017-12-25T17:25:15.693Z,-0.80
2017-12-25T17:27:44.430Z,-0.90
2017-12-25T17:30:13.091Z,-0.90
2017-12-25T17:32:41.780Z,-1.00
2017-12-25T17:35:10.490Z,-1.00
2017-12-25T17:37:39.177Z,-1.10
2017-12-25T17:40:07.884Z,-1.20
2017-12-25T17:42:36.634Z,-1.20
2017-12-25T17:45:05.306Z,-1.20
2017-12-25T17:47:33.978Z,-1.20
2017-12-25T17:50:02.647Z,-1.30
2017-12-25T17:52:32.078Z,-1.40
2017-12-25T17:55:00.762Z,-1.40
2017-12-25T17:57:29.425Z,-1.40
2017-12-25T17:59:58.862Z,-1.40
2017-12-25T18:02:27.558Z,-1.40
2017-12-25T18:04:56.987Z,-1.50
2017-12-25T18:07:25.721Z,-1.50
2017-12-25T18:09:55.161Z,-1.60
2017-12-25T18:12:23.850Z,-1.60
2017-12-25T18:14:52.570Z,-1.70
2017-12-25T18:17:21.263Z,-1.70
2017-12-25T18:19:49.990Z,-1.70
2017-12-25T18:22:18.877Z,-1.70
2017-12-25T18:24:47.797Z,-1.80
2017-12-25T18:27:16.455Z,-1.80
2017-12-25T18:29:45.194Z,-1.80
2017-12-25T18:32:13.858Z,-1.80
2017-12-25T18:34:42.601Z,-1.80
2017-12-25T18:37:12.140Z,-1.90
2017-12-25T18:39:40.811Z,-1.90
2017-12-25T18:42:10.042Z,-1.90
2017-12-25T18:44:38.761Z,-1.90
2017-12-25T18:47:07.441Z,-1.90
2017-12-25T18:49:36.211Z,-1.90
2017-12-25T18:52:04.926Z,-2.00
2017-12-25T18:54:33.637Z,-2.00
2017-12-25T18:57:03.162Z,-2.00
2017-12-25T18:59:32.233Z,-2.10
2017-12-25T19:02:02.045Z,-2.00
2017-12-25T19:04:31.529Z,-1.90
2017-12-25T19:07:00.205Z,-2.00
2017-12-25T19:09:28.893Z,-2.00
2017-12-25T19:11:57.602Z,-2.10
2017-12-25T19:14:26.324Z,-2.10
2017-12-25T19:16:55.098Z,-2.10
2017-12-25T19:19:24.549Z,-2.20
2017-12-25T19:21:53.213Z,-2.20
2017-12-25T19:24:21.911Z,-2.20
2017-12-25T19:26:50.744Z,-2.10
2017-12-25T19:29:19.401Z,-2.10
2017-12-25T19:31:48.093Z,-2.20
2017-12-25T19:34:16.806Z,-2.20
2017-12-25T19:36:45.488Z,-2.30
2017-12-25T19:39:14.166Z,-2.30
2017-12-25T19:41:42.857Z,-2.40
2017-12-25T19:44:11.579Z,-2.40
2017-12-25T19:46:40.249Z,-2.40
2017-12-25T19:49:08.973Z,-2.40
2017-12-25T19:51:37.630Z,-2.40
2017-12-25T19:54:06.290Z,-2.40
2017-12-25T19:56:35.009Z,-2.40
2017-12-25T19:59:04.457Z,-2.40
2017-12-25T20:01:33.125Z,-2.50
2017-12-25T20:04:01.810Z,-2.40
2017-12-25T20:06:30.480Z,-2.30
2017-12-25T20:09:00.034Z,-2.40
2017-12-25T20:11:28.750Z,-2.40
2017-12-25T20:13:57.401Z,-2.40
2017-12-25T20:16:26.053Z,-2.50
2017-12-25T20:18:54.742Z,-2.60
2017-12-25T20:21:23.397Z,-2.60
2017-12-25T20:23:52.103Z,-2.70
2017-12-25T20:26:21.517Z,-2.60
2017-12-25T20:28:50.932Z,-2.60
2017-12-25T20:31:19.620Z,-2.60
2017-12-25T20:33:48.297Z,-2.60
2017-12-25T20:36:16.953Z,-2.60
2017-12-25T20:38:45.646Z,-2.70
2017-12-25T20:41:14.324Z,-2.70
2017-12-25T20:43:42.978Z,-2.80
2017-12-25T20:46:11.638Z,-2.80
2017-12-25T20:48:40.305Z,-2.80
2017-12-25T20:51:09.773Z,-2.80
2017-12-25T20:53:38.438Z,-2.80
2017-12-25T20:56:07.141Z,-2.70
2017-12-25T20:58:35.832Z,-2.80
2017-12-25T21:01:04.530Z,-2.90
2017-12-25T21:03:33.185Z,-2.80
2017-12-25T21:06:01.878Z,-2.80
2017-12-25T21:08:30.550Z,-2.80
2017-12-25T21:10:59.205Z,-2.80
2017-12-25T21:13:28.663Z,-2.80
2017-12-25T21:15:57.308Z,-2.80
2017-12-25T21:18:25.978Z,-2.70
2017-12-25T21:20:55.445Z,-2.80
2017-12-25T21:23:24.125Z,-2.80
2017-12-25T21:25:52.782Z,-2.80
2017-12-25T21:28:21.451Z,-2.80
2017-12-25T21:30:50.865Z,-3.00
2017-12-25T21:33:19.554Z,-3.10
2017-12-25T21:35:48.251Z,-3.10
2017-12-25T21:38:17.057Z,-3.10
2017-12-25T21:40:45.765Z,-3.10
2017-12-25T21:43:14.436Z,-3.10
2017-12-25T21:45:43.092Z,-3.10
2017-12-25T21:48:11.833Z,-3.20
2017-12-25T21:50:40.504Z,-3.10
2017-12-25T21:53:09.362Z,-3.10
2017-12-25T21:55:38.029Z,-3.10
2017-12-25T21:58:06.681Z,-3.00
2017-12-25T22:00:35.365Z,-3.10
2017-12-25T22:03:04.037Z,-3.00
2017-12-25T22:05:32.728Z,-3.10
2017-12-25T22:08:01.430Z,-3.10
2017-12-25T22:10:30.118Z,-3.00
2017-12-25T22:12:58.815Z,-3.00
2017-12-25T22:15:27.527Z,-3.00
2017-12-25T22:17:56.985Z,-3.00
2017-12-25T22:20:25.652Z,-3.10
2017-12-25T22:22:54.600Z,-3.20
2017-12-25T22:25:23.264Z,-3.20
2017-12-25T22:27:51.962Z,-3.20
2017-12-25T22:30:20.789Z,-3.20
2017-12-25T22:32:50.226Z,-3.10
2017-12-25T22:35:18.893Z,-3.10
2017-12-25T22:37:47.672Z,-3.10
2017-12-25T22:40:16.502Z,-3.20
2017-12-25T22:42:45.190Z,-3.20
2017-12-25T22:45:13.897Z,-3.30
2017-12-25T22:47:42.573Z,-3.30
2017-12-25T22:50:11.269Z,-3.40
2017-12-25T22:52:40.721Z,-3.30
2017-12-25T22:55:09.405Z,-3.40
2017-12-25T22:57:38.074Z,-3.40
2017-12-25T23:00:07.561Z,-3.30
2017-12-25T23:02:36.221Z,-3.30
2017-12-25T23:05:04.895Z,-3.30
2017-12-25T23:07:33.600Z,-3.30
2017-12-25T23:10:02.269Z,-3.20
2017-12-25T23:12:30.927Z,-3.20
2017-12-25T23:15:00.376Z,-3.40
2017-12-25T23:17:29.053Z,-3.40
2017-12-25T23:19:57.786Z,-3.40
2017-12-25T23:22:27.224Z,-3.20
2017-12-25T23:24:55.905Z,-3.20
2017-12-25T23:27:25.588Z,-3.30
2017-12-25T23:29:55.039Z,-3.40
2017-12-25T23:32:23.705Z,-3.40
2017-12-25T23:34:52.375Z,-3.50
2017-12-25T23:37:21.801Z,-3.50
2017-12-25T23:39:51.254Z,-3.40
2017-12-25T23:42:19.933Z,-3.50
2017-12-25T23:44:48.608Z,-3.40
2017-12-25T23:47:17.264Z,-3.40
2017-12-25T23:49:46.010Z,-3.50
2017-12-25T23:52:14.719Z,-3.50
2017-12-25T23:54:44.201Z,-3.40
2017-12-25T23:57:12.911Z,-3.40
2017-12-25T23:59:42.397Z,-3.40
